createdAt,value
2023-03-20T00:00:02.022Z,81.27
2023-03-20T00:00:56.604Z,81.15
2023-03-20T00:01:49.645Z,80.93
2023-03-20T00:02:41.135Z,80.90
2023-03-20T00:03:32.677Z,80.41
2023-03-20T00:04:25.599Z,79.94
2023-03-20T00:05:23.450Z,80.17
2023-03-20T00:06:20.569Z,80.00
2023-03-20T00:07:12.642Z,80.02
2023-03-20T00:08:04.712Z,80.26
2023-03-20T00:08:57.535Z,80.61
2023-03-20T00:09:49.407Z,80.48
2023-03-20T00:10:44.830Z,80.42
2023-03-20T00:11:44.256Z,79.58
2023-03-20T00:12:36.091Z,79.62
2023-03-20T00:13:28.438Z,79.44
2023-03-20T00:14:24.472Z,79.73
2023-03-20T00:15:36.583Z,79.95
2023-03-20T00:16:34.384Z,80.18
2023-03-20T00:17:25.922Z,80.53
2023-03-20T00:18:20.511Z,80.13
2023-03-20T00:19:23.147Z,80.53
2023-03-20T00:20:16.273Z,80.31
2023-03-20T00:21:17.830Z,80.37
2023-03-20T00:22:09.335Z,80.52
2023-03-20T00:23:00.819Z,80.40
2023-03-20T00:23:54.694Z,80.09
2023-03-20T00:24:46.206Z,79.58
2023-03-20T00:25:39.980Z,79.87
2023-03-20T00:26:35.378Z,79.57
2023-03-20T00:27:26.979Z,79.69
2023-03-20T00:28:28.037Z,79.92
2023-03-20T00:29:30.813Z,80.24
2023-03-20T00:30:24.977Z,80.53
2023-03-20T00:31:24.489Z,80.20
2023-03-20T00:32:18.143Z,80.24
2023-03-20T00:33:10.781Z,80.24
2023-03-20T00:34:14.780Z,80.30
2023-03-20T00:35:18.787Z,80.12
2023-03-20T00:36:11.992Z,80.21
2023-03-20T00:37:05.378Z,80.19
2023-03-20T00:37:58.328Z,80.17
2023-03-20T00:38:51.646Z,78.75
2023-03-20T00:39:43.190Z,78.88
2023-03-20T00:40:35.151Z,79.80
2023-03-20T00:41:32.449Z,79.79
2023-03-20T00:42:24.750Z,80.16
2023-03-20T00:43:16.417Z,80.10
2023-03-20T00:44:30.292Z,79.83
2023-03-20T00:45:21.980Z,79.42
2023-03-20T00:46:14.624Z,79.34
2023-03-20T00:47:12.830Z,79.15
2023-03-20T00:48:05.831Z,78.90
2023-03-20T00:48:57.538Z,79.40
2023-03-20T00:49:52.432Z,79.25
2023-03-20T00:50:44.871Z,79.49
2023-03-20T00:51:36.344Z,79.37
2023-03-20T00:52:28.504Z,79.72
2023-03-20T00:53:20.116Z,79.45
2023-03-20T00:54:15.451Z,80.07
2023-03-20T00:55:07.380Z,79.68
2023-03-20T00:55:59.783Z,79.94
2023-03-20T00:57:05.939Z,79.97
2023-03-20T00:58:02.122Z,80.48
2023-03-20T00:58:54.119Z,80.22
2023-03-20T01:00:02.349Z,80.25
2023-03-20T01:00:54.395Z,80.18
2023-03-20T01:01:46.310Z,79.54
2023-03-20T01:02:37.932Z,79.32
2023-03-20T01:03:29.968Z,79.65
2023-03-20T01:04:21.938Z,80.00
2023-03-20T01:05:13.698Z,79.28
2023-03-20T01:06:05.587Z,79.29
2023-03-20T01:06:57.054Z,79.52
2023-03-20T01:07:48.552Z,79.42
2023-03-20T01:08:40.299Z,79.41
2023-03-20T01:09:31.972Z,79.45
2023-03-20T01:10:32.227Z,79.54
2023-03-20T01:11:24.787Z,79.44
2023-03-20T01:12:17.460Z,79.69
2023-03-20T01:13:38.367Z,79.87
2023-03-20T01:14:30.472Z,79.98
2023-03-20T01:15:27.117Z,79.82
2023-03-20T01:16:25.619Z,79.79
2023-03-20T01:17:20.345Z,79.93
2023-03-20T01:18:15.082Z,79.43
2023-03-20T01:19:06.641Z,79.65
2023-03-20T01:19:58.168Z,79.91
2023-03-20T01:20:50.437Z,79.69
2023-03-20T01:21:42.775Z,79.64
2023-03-20T01:22:34.449Z,79.91
2023-03-20T01:23:26.873Z,79.65
2023-03-20T01:24:18.939Z,79.44
2023-03-20T01:25:11.343Z,79.44
2023-03-20T01:26:02.912Z,78.95
2023-03-20T01:26:54.660Z,78.75
2023-03-20T01:27:54.329Z,79.27
2023-03-20T01:28:46.005Z,78.94
2023-03-20T01:29:37.621Z,79.81
2023-03-20T01:30:31.901Z,79.51
2023-03-20T01:31:23.498Z,79.86
2023-03-20T01:32:18.425Z,79.70
2023-03-20T01:33:17.043Z,80.03
2023-03-20T01:34:12.346Z,80.42
2023-03-20T01:35:04.557Z,80.50
2023-03-20T01:35:57.358Z,80.41
2023-03-20T01:36:54.479Z,80.32
2023-03-20T01:37:46.392Z,79.89
2023-03-20T01:38:38.817Z,79.72
2023-03-20T01:39:35.830Z,79.82
2023-03-20T01:40:37.689Z,80.57
2023-03-20T01:41:29.829Z,80.40
2023-03-20T01:42:21.838Z,80.23
2023-03-20T01:43:17.121Z,80.00
2023-03-20T01:44:34.087Z,80.16
2023-03-20T01:45:34.023Z,79.30
2023-03-20T01:46:29.897Z,79.70
2023-03-20T01:47:29.963Z,79.37
2023-03-20T01:48:48.598Z,80.10
2023-03-20T01:50:14.794Z,79.79
2023-03-20T01:51:06.473Z,80.65
2023-03-20T01:51:58.124Z,80.53
2023-03-20T01:53:19.575Z,80.44
2023-03-20T01:54:33.280Z,80.22
2023-03-20T01:55:30.683Z,79.88
2023-03-20T01:56:27.019Z,80.62
2023-03-20T01:57:25.303Z,80.33
2023-03-20T01:58:31.294Z,80.07
2023-03-20T01:59:40.952Z,79.99
2023-03-20T02:00:33.456Z,79.79
2023-03-20T02:01:27.732Z,80.22
2023-03-20T02:02:24.923Z,80.70
2023-03-20T02:03:18.991Z,80.29
2023-03-20T02:04:37.015Z,81.07
2023-03-20T02:05:34.169Z,80.64
2023-03-20T02:06:26.784Z,80.64
2023-03-20T02:07:34.984Z,80.72
2023-03-20T02:08:32.316Z,80.91
2023-03-20T02:09:27.489Z,81.12
2023-03-20T02:10:19.432Z,80.86
2023-03-20T02:11:39.139Z,81.04
2023-03-20T02:12:31.621Z,81.01
2023-03-20T02:13:27.177Z,80.85
2023-03-20T02:14:19.779Z,81.12
2023-03-20T02:15:19.890Z,81.11
2023-03-20T02:16:26.386Z,80.66
2023-03-20T02:17:44.533Z,80.71
2023-03-20T02:18:41.541Z,81.03
2023-03-20T02:20:01.880Z,81.13
2023-03-20T02:21:19.104Z,80.86
2023-03-20T02:22:47.634Z,80.91
2023-03-20T02:23:59.708Z,80.71
2023-03-20T02:25:07.040Z,80.71
2023-03-20T02:26:10.392Z,80.50
2023-03-20T02:27:33.171Z,80.62
2023-03-20T02:29:13.437Z,80.72
2023-03-20T02:30:19.136Z,81.10
2023-03-20T02:31:54.243Z,81.14
2023-03-20T02:32:54.861Z,81.33
2023-03-20T02:33:51.002Z,81.07
2023-03-20T02:34:43.340Z,81.81
2023-03-20T02:35:53.625Z,80.90
2023-03-20T02:37:06.800Z,80.60
2023-03-20T02:38:30.741Z,81.09
2023-03-20T02:39:28.089Z,81.00
2023-03-20T02:41:10.617Z,80.80
2023-03-20T02:42:12.113Z,80.67
2023-03-20T02:43:20.961Z,81.01
2023-03-20T02:44:23.749Z,80.42
2023-03-20T02:45:57.722Z,80.54
2023-03-20T02:47:01.845Z,80.54
2023-03-20T02:48:10.544Z,79.18
2023-03-20T02:49:35.683Z,79.23
2023-03-20T02:51:00.311Z,79.71
2023-03-20T02:52:06.690Z,79.69
2023-03-20T02:53:42.674Z,79.77
2023-03-20T02:55:10.801Z,79.52
2023-03-20T02:56:17.675Z,79.75
2023-03-20T02:57:27.524Z,79.69
2023-03-20T02:58:19.009Z,79.88
2023-03-20T02:59:25.420Z,79.07
2023-03-20T03:00:35.503Z,78.44
2023-03-20T03:01:41.640Z,78.05
2023-03-20T03:02:58.504Z,77.95
2023-03-20T03:03:57.750Z,78.27
2023-03-20T03:04:59.813Z,78.32
2023-03-20T03:06:02.980Z,78.60
2023-03-20T03:06:59.277Z,78.40
2023-03-20T03:07:57.338Z,78.19
2023-03-20T03:08:55.814Z,78.80
2023-03-20T03:10:19.751Z,78.08
2023-03-20T03:11:11.412Z,78.27
2023-03-20T03:12:12.365Z,77.88
2023-03-20T03:13:12.341Z,78.26
2023-03-20T03:14:08.315Z,78.63
2023-03-20T03:15:22.020Z,78.29
2023-03-20T03:16:22.467Z,78.64
2023-03-20T03:17:18.527Z,79.30
2023-03-20T03:18:19.523Z,79.03
2023-03-20T03:19:18.238Z,78.92
2023-03-20T03:20:28.959Z,78.83
2023-03-20T03:21:23.761Z,78.92
2023-03-20T03:22:17.831Z,79.31
2023-03-20T03:23:22.967Z,78.91
2023-03-20T03:24:40.291Z,78.62
2023-03-20T03:25:39.945Z,78.63
2023-03-20T03:26:38.320Z,78.78
2023-03-20T03:28:04.267Z,78.62
2023-03-20T03:28:59.858Z,78.82
2023-03-20T03:30:12.131Z,79.18
2023-03-20T03:31:12.100Z,78.58
2023-03-20T03:32:07.165Z,78.25
2023-03-20T03:33:18.235Z,78.30
2023-03-20T03:34:17.620Z,78.42
2023-03-20T03:35:17.130Z,78.67
2023-03-20T03:36:36.578Z,79.01
2023-03-20T03:37:53.954Z,78.99
2023-03-20T03:38:48.244Z,79.16
2023-03-20T03:39:51.022Z,79.06
2023-03-20T03:40:53.243Z,78.68
2023-03-20T03:41:52.257Z,77.91
2023-03-20T03:42:57.928Z,78.53
2023-03-20T03:44:07.972Z,79.29
2023-03-20T03:45:10.338Z,79.45
2023-03-20T03:46:12.524Z,80.51
2023-03-20T03:47:12.730Z,80.78
2023-03-20T03:48:22.001Z,80.93
2023-03-20T03:49:23.133Z,81.45
2023-03-20T03:50:22.989Z,81.58
2023-03-20T03:51:21.581Z,82.27
2023-03-20T03:52:26.324Z,82.23
2023-03-20T03:53:31.825Z,81.88
2023-03-20T03:54:50.633Z,82.08
2023-03-20T03:56:02.052Z,81.78
2023-03-20T03:56:57.637Z,82.34
2023-03-20T03:58:08.058Z,82.48
2023-03-20T03:59:09.083Z,83.04
2023-03-20T04:00:06.334Z,82.97
2023-03-20T04:01:11.682Z,83.02
2023-03-20T04:02:08.976Z,82.67
2023-03-20T04:03:00.584Z,82.92
2023-03-20T04:03:56.986Z,82.92
2023-03-20T04:04:53.576Z,83.04
2023-03-20T04:05:47.826Z,83.31
2023-03-20T04:06:39.437Z,82.79
2023-03-20T04:07:31.997Z,83.13
2023-03-20T04:08:23.626Z,82.93
2023-03-20T04:09:15.590Z,83.39
2023-03-20T04:10:08.462Z,83.28
2023-03-20T04:11:00.055Z,83.45
2023-03-20T04:11:53.136Z,82.69
2023-03-20T04:12:45.873Z,82.94
2023-03-20T04:13:37.413Z,82.25
2023-03-20T04:14:29.122Z,82.20
2023-03-20T04:15:21.640Z,82.10
2023-03-20T04:16:17.112Z,81.97
2023-03-20T04:17:09.067Z,81.18
2023-03-20T04:18:00.986Z,80.84
2023-03-20T04:18:53.658Z,80.47
2023-03-20T04:19:45.311Z,80.53
2023-03-20T04:20:36.895Z,80.43
2023-03-20T04:21:30.412Z,81.03
2023-03-20T04:22:22.096Z,80.82
2023-03-20T04:23:15.167Z,80.61
2023-03-20T04:24:07.253Z,80.50
2023-03-20T04:24:58.799Z,80.75
2023-03-20T04:25:52.787Z,81.03
2023-03-20T04:26:44.368Z,80.56
2023-03-20T04:27:36.193Z,80.80
2023-03-20T04:28:35.313Z,80.74
2023-03-20T04:29:45.781Z,79.75
2023-03-20T04:31:03.661Z,79.73
2023-03-20T04:32:02.466Z,79.45
2023-03-20T04:33:03.356Z,79.68
2023-03-20T04:34:30.157Z,79.16
2023-03-20T04:35:41.972Z,79.10
2023-03-20T04:36:37.755Z,79.05
2023-03-20T04:37:31.702Z,79.04
2023-03-20T04:38:30.754Z,79.26
2023-03-20T04:39:22.281Z,78.89
2023-03-20T04:40:15.143Z,79.29
2023-03-20T04:41:08.730Z,78.98
2023-03-20T04:42:00.673Z,79.35
2023-03-20T04:42:53.005Z,79.37
2023-03-20T04:43:45.091Z,79.36
2023-03-20T04:44:36.727Z,79.10
2023-03-20T04:45:28.286Z,79.20
2023-03-20T04:46:19.897Z,78.96
2023-03-20T04:47:11.756Z,78.91
2023-03-20T04:48:08.033Z,78.48
2023-03-20T04:49:00.763Z,78.63
2023-03-20T04:49:55.143Z,78.19
2023-03-20T04:50:48.325Z,78.41
2023-03-20T04:51:41.047Z,78.73
2023-03-20T04:52:33.142Z,78.81
2023-03-20T04:53:27.075Z,79.00
2023-03-20T04:54:19.443Z,78.97
2023-03-20T04:55:11.865Z,79.10
2023-03-20T04:56:03.953Z,79.70
2023-03-20T04:56:57.558Z,79.78
2023-03-20T04:57:50.385Z,79.89
2023-03-20T04:58:41.963Z,80.24
2023-03-20T04:59:34.717Z,79.35
2023-03-20T05:00:26.484Z,79.41
2023-03-20T05:01:18.078Z,79.01
2023-03-20T05:02:14.729Z,79.06
2023-03-20T05:03:07.059Z,79.11
2023-03-20T05:04:01.025Z,79.35
2023-03-20T05:04:56.168Z,79.62
2023-03-20T05:05:47.688Z,79.64
2023-03-20T05:06:39.588Z,80.10
2023-03-20T05:07:31.491Z,79.57
2023-03-20T05:08:29.894Z,79.55
2023-03-20T05:09:24.995Z,79.83
2023-03-20T05:10:18.827Z,79.64
2023-03-20T05:11:21.930Z,80.02
2023-03-20T08:17:28.026Z,71.73
2023-03-20T08:18:22.990Z,70.86
2023-03-20T08:19:14.529Z,70.52
2023-03-20T08:20:07.152Z,69.53
2023-03-20T08:20:58.640Z,70.38
2023-03-20T08:21:51.484Z,69.23
2023-03-20T08:22:45.140Z,68.95
2023-03-20T08:23:36.703Z,68.85
2023-03-20T08:24:28.208Z,69.06
2023-03-20T08:25:19.639Z,68.95
2023-03-20T08:26:11.351Z,68.98
2023-03-20T08:27:03.128Z,68.57
2023-03-20T08:27:54.604Z,67.83
2023-03-20T08:28:48.680Z,68.05
2023-03-20T08:29:40.591Z,68.58
2023-03-20T08:30:32.142Z,67.99
2023-03-20T08:31:25.232Z,67.77
2023-03-20T08:32:16.808Z,65.79
2023-03-20T08:33:08.284Z,66.98
2023-03-20T08:33:59.967Z,66.97
2023-03-20T08:34:51.444Z,66.84
2023-03-20T08:35:43.500Z,65.86
2023-03-20T08:36:35.096Z,65.72
2023-03-20T08:37:26.626Z,65.60
2023-03-20T08:38:18.188Z,66.53
2023-03-20T08:39:09.764Z,66.64
2023-03-20T08:40:01.755Z,65.54
2023-03-20T08:40:54.963Z,66.01
2023-03-20T08:41:46.605Z,66.13
2023-03-20T08:42:38.570Z,67.03
2023-03-20T08:43:30.039Z,66.93
2023-03-20T08:44:21.962Z,65.88
2023-03-20T08:45:13.519Z,66.12
2023-03-20T08:46:06.065Z,66.11
2023-03-20T08:46:57.925Z,65.71
2023-03-20T08:47:49.477Z,66.63
2023-03-20T08:48:41.215Z,65.43
2023-03-20T08:49:33.137Z,65.08
2023-03-20T08:50:25.012Z,66.73
2023-03-20T08:51:17.007Z,65.61
2023-03-20T08:52:08.679Z,65.42
2023-03-20T08:53:01.042Z,65.83
2023-03-20T08:53:52.719Z,64.95
2023-03-20T08:54:44.227Z,65.23
2023-03-20T08:55:36.091Z,64.89
2023-03-20T08:56:27.759Z,64.18
2023-03-20T08:57:19.388Z,64.06
2023-03-20T08:58:11.181Z,63.18
2023-03-20T08:59:02.920Z,63.34
2023-03-20T08:59:54.422Z,65.14
2023-03-20T09:00:46.042Z,64.68
2023-03-20T09:01:49.362Z,64.04
2023-03-20T09:02:43.330Z,63.11
2023-03-20T09:03:35.701Z,62.88
2023-03-20T09:04:27.913Z,65.70
2023-03-20T09:05:19.509Z,64.95
2023-03-20T09:06:11.744Z,65.48
2023-03-20T09:07:03.657Z,65.83
2023-03-20T09:07:55.378Z,62.59
2023-03-20T09:08:47.092Z,63.47
2023-03-20T09:09:38.819Z,62.48
2023-03-20T09:10:30.917Z,64.50
2023-03-20T09:11:22.803Z,63.82
2023-03-20T09:12:14.302Z,63.86
2023-03-20T09:13:25.425Z,63.70
2023-03-20T09:14:17.952Z,62.90
2023-03-20T09:15:09.780Z,63.05
2023-03-20T09:16:01.561Z,63.50
2023-03-20T09:16:53.883Z,63.47
2023-03-20T09:17:45.367Z,65.99
2023-03-20T09:18:37.147Z,62.99
2023-03-20T09:19:30.740Z,64.64
2023-03-20T09:20:23.564Z,63.94
2023-03-20T09:21:17.521Z,63.45
2023-03-20T09:22:09.294Z,64.60
2023-03-20T09:23:01.082Z,64.42
2023-03-20T09:23:52.582Z,64.76
2023-03-20T09:24:44.876Z,64.02
2023-03-20T09:25:37.133Z,62.81
2023-03-20T09:26:28.841Z,63.54
2023-03-20T09:27:20.372Z,64.01
2023-03-20T09:28:11.918Z,64.18
2023-03-20T09:29:03.877Z,64.37
2023-03-20T09:29:55.797Z,65.13
2023-03-20T09:30:47.395Z,64.45
2023-03-20T09:31:39.084Z,62.82
2023-03-20T09:32:30.555Z,63.12
2023-03-20T09:33:22.282Z,64.12
2023-03-20T09:34:13.787Z,62.65
2023-03-20T09:35:07.320Z,62.71
2023-03-20T09:35:58.795Z,62.37
2023-03-20T09:36:50.732Z,62.79
2023-03-20T09:37:42.507Z,63.13
2023-03-20T09:38:33.998Z,63.47
2023-03-20T09:39:25.406Z,63.48
2023-03-20T09:40:29.233Z,63.57
2023-03-20T09:41:26.685Z,62.58
2023-03-20T09:42:19.350Z,62.05
2023-03-20T09:43:29.496Z,63.39
2023-03-20T09:44:38.925Z,62.16
2023-03-20T09:46:01.299Z,62.84
2023-03-20T09:47:19.682Z,62.33
2023-03-20T09:48:25.981Z,63.76
2023-03-20T09:49:28.887Z,62.20
2023-03-20T09:50:26.036Z,63.91
2023-03-20T09:51:35.709Z,62.54
2023-03-20T09:52:45.962Z,63.39
2023-03-20T09:54:01.372Z,62.58
2023-03-20T09:55:21.666Z,62.89
2023-03-20T09:56:20.822Z,62.90
2023-03-20T09:57:29.437Z,64.62
2023-03-20T09:58:27.241Z,63.09
2023-03-20T09:59:21.935Z,63.07
2023-03-20T10:00:26.398Z,62.28
2023-03-20T10:01:23.562Z,61.29
2023-03-20T10:02:51.315Z,61.95
2023-03-20T10:04:09.801Z,61.90
2023-03-20T10:05:07.051Z,61.14
2023-03-20T10:06:03.516Z,62.09
2023-03-20T10:06:56.697Z,61.76
2023-03-20T10:07:51.068Z,61.23
2023-03-20T10:08:44.204Z,61.54
2023-03-20T10:09:36.226Z,61.18
2023-03-20T10:10:35.738Z,61.70
2023-03-20T10:11:30.114Z,61.98
2023-03-20T10:12:51.034Z,62.34
2023-03-20T10:13:57.092Z,61.60
2023-03-20T10:14:59.416Z,62.98
2023-03-20T10:16:16.943Z,61.08
2023-03-20T10:17:28.121Z,61.07
2023-03-20T10:18:29.654Z,60.95
2023-03-20T10:19:40.903Z,60.36
2023-03-20T10:20:35.506Z,60.14
2023-03-20T10:21:43.749Z,60.82
2023-03-20T10:22:42.478Z,61.68
2023-03-20T10:23:50.316Z,61.50
2023-03-20T10:24:50.881Z,60.22
2023-03-20T10:25:52.229Z,60.65
2023-03-20T10:26:43.889Z,61.35
2023-03-20T10:27:43.769Z,60.96
2023-03-20T10:28:55.671Z,60.20
2023-03-20T10:30:22.970Z,60.53
2023-03-20T10:31:37.815Z,61.73
2023-03-20T10:33:03.603Z,61.79
2023-03-20T10:34:20.763Z,61.93
2023-03-20T10:35:37.879Z,60.97
2023-03-20T10:36:40.363Z,61.35
2023-03-20T10:38:18.195Z,61.30
2023-03-20T10:39:31.526Z,59.88
2023-03-20T10:40:29.174Z,60.50
2023-03-20T10:41:25.541Z,60.58
2023-03-20T10:42:29.077Z,59.61
2023-03-20T10:43:28.574Z,58.98
2023-03-20T10:44:31.884Z,59.34
2023-03-20T10:45:46.262Z,60.51
2023-03-20T10:46:48.252Z,59.78
2023-03-20T10:47:47.978Z,60.00
2023-03-20T10:48:52.473Z,59.49
2023-03-20T10:49:52.198Z,59.17
2023-03-20T10:50:51.259Z,58.58
2023-03-20T10:51:58.163Z,59.12
2023-03-20T10:52:54.035Z,60.93
2023-03-20T10:53:48.439Z,59.94
2023-03-20T10:54:45.838Z,59.27
2023-03-20T10:55:43.930Z,58.92
2023-03-20T10:56:50.226Z,57.51
2023-03-20T10:57:54.860Z,59.04
2023-03-20T10:58:50.444Z,58.09
2023-03-20T10:59:50.524Z,59.71
2023-03-20T11:00:42.058Z,57.96
2023-03-20T11:01:35.733Z,58.88
2023-03-20T11:02:32.545Z,58.42
2023-03-20T11:03:27.066Z,58.59
2023-03-20T11:04:19.327Z,59.25
2023-03-20T11:05:32.246Z,57.79
2023-03-20T11:06:31.598Z,58.54
2023-03-20T11:07:33.847Z,56.90
2023-03-20T11:08:34.713Z,56.08
2023-03-20T11:09:32.866Z,55.46
2023-03-20T11:10:26.897Z,55.14
2023-03-20T11:11:34.596Z,54.55
2023-03-20T11:12:40.879Z,54.77
2023-03-20T11:13:40.466Z,54.21
2023-03-20T11:14:42.516Z,55.74
2023-03-20T11:15:34.476Z,55.68
2023-03-20T11:16:34.003Z,54.33
2023-03-20T11:17:29.163Z,54.71
2023-03-20T11:18:25.126Z,54.36
2023-03-20T11:19:17.459Z,55.23
2023-03-20T11:20:14.313Z,55.38
2023-03-20T11:21:14.025Z,54.55
2023-03-20T11:22:28.713Z,55.22
2023-03-20T11:23:32.734Z,54.25
2023-03-20T11:24:34.361Z,54.14
2023-03-20T11:25:33.915Z,53.72
2023-03-20T11:26:37.094Z,54.32
2023-03-20T11:27:34.602Z,54.03
2023-03-20T11:28:41.526Z,52.81
2023-03-20T11:29:36.983Z,52.94
2023-03-20T11:30:28.486Z,54.71
2023-03-20T11:31:35.072Z,53.27
2023-03-20T11:32:48.808Z,53.67
2023-03-20T11:33:50.190Z,53.76
2023-03-20T11:34:43.319Z,54.46
2023-03-20T11:35:36.035Z,54.40
2023-03-20T11:36:30.461Z,54.50
2023-03-20T11:37:26.161Z,54.47
2023-03-20T11:38:21.536Z,54.66
2023-03-20T11:39:18.020Z,56.90
2023-03-20T11:40:12.457Z,54.33
2023-03-20T11:41:05.479Z,55.34
2023-03-20T11:41:59.409Z,52.54
2023-03-20T11:42:57.140Z,54.56
2023-03-20T11:43:48.641Z,55.23
2023-03-20T11:44:41.491Z,54.58
2023-03-20T11:45:40.041Z,55.12
2023-03-20T11:46:31.841Z,53.87
2023-03-20T11:47:28.120Z,52.93
2023-03-20T11:48:36.878Z,54.81
2023-03-20T11:49:28.622Z,53.47
2023-03-20T11:50:29.786Z,52.94
2023-03-20T11:51:22.677Z,52.99
2023-03-20T11:52:24.835Z,53.12
2023-03-20T11:53:31.120Z,53.12
2023-03-20T11:54:25.951Z,53.40
2023-03-20T11:55:46.478Z,53.89
2023-03-20T11:56:38.344Z,52.85
2023-03-20T11:57:35.667Z,54.53
2023-03-20T11:58:29.710Z,54.02
2023-03-20T11:59:26.229Z,53.87
2023-03-20T12:00:21.728Z,53.86
2023-03-20T12:01:13.822Z,52.17
2023-03-20T12:02:22.470Z,50.17
2023-03-20T12:03:39.191Z,50.80
2023-03-20T12:04:42.808Z,51.21
2023-03-20T12:05:39.401Z,51.62
2023-03-20T12:06:46.077Z,53.58
2023-03-20T12:07:39.719Z,53.17
2023-03-20T12:08:36.810Z,53.41
2023-03-20T12:09:45.797Z,51.94
2023-03-20T12:10:43.053Z,52.55
2023-03-20T12:12:00.927Z,51.71
2023-03-20T12:13:02.846Z,53.04
2023-03-20T12:14:00.310Z,51.83
2023-03-20T12:15:07.580Z,53.98
2023-03-20T12:16:04.788Z,52.88
2023-03-20T12:17:27.701Z,54.24
2023-03-20T12:18:31.475Z,53.00
2023-03-20T12:19:30.642Z,55.52
2023-03-20T12:20:44.172Z,55.14
2023-03-20T12:21:52.175Z,55.22
2023-03-20T12:23:11.769Z,55.71
2023-03-20T12:24:11.451Z,55.05
2023-03-20T12:25:26.056Z,54.08
2023-03-20T12:26:25.824Z,55.79
2023-03-20T12:27:28.106Z,54.90
2023-03-20T12:28:34.573Z,57.08
2023-03-20T12:29:50.325Z,55.07
2023-03-20T12:31:16.112Z,55.13
2023-03-20T12:32:23.322Z,54.30
2023-03-20T12:33:41.327Z,56.64
2023-03-20T12:34:59.025Z,55.60
2023-03-20T12:35:54.050Z,55.65
2023-03-20T12:36:48.919Z,56.97
2023-03-20T12:37:40.533Z,57.00
2023-03-20T12:38:37.053Z,58.50
2023-03-20T12:39:35.410Z,57.12
2023-03-20T12:40:50.215Z,57.09
2023-03-20T12:42:09.690Z,56.96
2023-03-20T12:43:10.539Z,56.24
2023-03-20T12:44:18.766Z,55.80
2023-03-20T12:45:34.874Z,57.22
2023-03-20T12:47:03.793Z,57.35
2023-03-20T12:48:06.574Z,57.25
2023-03-20T12:49:07.136Z,57.23
2023-03-20T12:50:28.936Z,57.52
2023-03-20T12:52:00.041Z,56.63
2023-03-20T12:53:22.513Z,57.93
2023-03-20T12:54:28.118Z,57.39
2023-03-20T12:55:59.286Z,58.17
2023-03-20T12:57:07.040Z,58.38
2023-03-20T12:58:27.535Z,58.03
2023-03-20T12:59:39.475Z,59.80
2023-03-20T13:00:42.550Z,57.97
2023-03-20T13:01:52.984Z,58.07
2023-03-20T13:03:22.202Z,58.17
2023-03-20T13:04:19.875Z,58.31
2023-03-20T13:05:48.594Z,57.97
2023-03-20T13:06:46.565Z,57.04
2023-03-20T13:07:38.134Z,59.15
2023-03-20T13:08:53.847Z,57.55
2023-03-20T13:09:57.128Z,57.53
2023-03-20T13:11:05.764Z,58.71
2023-03-20T13:12:10.032Z,58.19
2023-03-20T13:13:25.733Z,59.07
2023-03-20T13:14:47.331Z,60.68
2023-03-20T13:16:01.026Z,57.20
2023-03-20T13:17:16.404Z,57.85
2023-03-20T13:18:27.998Z,57.27
2023-03-20T13:19:25.764Z,57.33
2023-03-20T13:20:39.295Z,57.35
2023-03-20T13:21:47.765Z,58.45
2023-03-20T13:22:54.728Z,58.18
2023-03-20T13:23:59.402Z,56.72
2023-03-20T13:25:01.629Z,57.78
2023-03-20T13:26:20.630Z,56.52
2023-03-20T13:27:33.734Z,56.83
2023-03-20T13:28:46.101Z,56.16
2023-03-20T13:30:08.541Z,56.67
2023-03-20T13:31:43.045Z,57.64
2023-03-20T13:32:58.129Z,58.13
2023-03-20T13:34:17.012Z,58.36
2023-03-20T13:35:23.550Z,57.34
2023-03-20T13:36:38.782Z,58.33
2023-03-20T13:37:38.976Z,57.68
2023-03-20T13:38:38.521Z,57.85
2023-03-20T13:39:38.928Z,56.68
2023-03-20T13:40:38.616Z,56.70
2023-03-20T13:41:33.883Z,55.69
2023-03-20T13:42:34.490Z,56.54
2023-03-20T13:43:36.102Z,56.74
2023-03-20T13:44:30.323Z,56.46
2023-03-20T13:45:43.078Z,57.41
2023-03-20T13:46:43.592Z,57.71
2023-03-20T13:47:38.326Z,57.64
2023-03-20T13:48:40.373Z,56.99
2023-03-20T13:49:47.234Z,57.75
2023-03-20T13:50:56.077Z,58.36
2023-03-20T13:52:05.562Z,56.40
2023-03-20T13:53:21.212Z,57.50
2023-03-20T13:54:42.032Z,56.44
2023-03-20T13:55:49.981Z,57.18
2023-03-20T13:57:29.064Z,55.94
2023-03-20T13:58:20.514Z,56.60
2023-03-20T13:59:23.964Z,57.38
2023-03-20T14:00:30.834Z,57.64
2023-03-20T14:01:51.211Z,57.46
2023-03-20T14:03:12.120Z,57.56
2023-03-20T14:04:08.659Z,56.82
2023-03-20T14:05:20.141Z,56.55
2023-03-20T14:06:30.493Z,56.86
2023-03-20T14:07:29.582Z,57.14
2023-03-20T14:08:26.804Z,57.35
2023-03-20T14:09:34.485Z,56.18
2023-03-20T14:10:26.413Z,57.24
2023-03-20T14:11:21.008Z,55.91
2023-03-20T14:12:13.372Z,56.73
2023-03-20T14:13:11.331Z,55.17
2023-03-20T14:14:29.110Z,56.68
2023-03-20T14:15:22.759Z,57.11
2023-03-20T14:16:18.223Z,56.93
2023-03-20T14:17:15.694Z,56.07
2023-03-20T14:18:16.561Z,57.08
2023-03-20T14:19:20.760Z,56.59
2023-03-20T14:20:34.272Z,56.65
2023-03-20T14:21:26.081Z,57.42
2023-03-20T14:22:40.783Z,57.14
2023-03-20T14:23:36.600Z,56.42
2023-03-20T14:24:28.695Z,55.49
2023-03-20T14:25:23.715Z,55.75
2023-03-20T14:26:27.024Z,55.77
2023-03-20T14:27:36.743Z,56.28
2023-03-20T14:28:55.473Z,55.79
2023-03-20T14:29:47.026Z,55.73
2023-03-20T14:30:51.334Z,56.14
2023-03-20T14:31:45.287Z,56.43
2023-03-20T14:32:53.237Z,55.73
2023-03-20T14:33:45.045Z,55.43
2023-03-20T14:35:20.668Z,56.43
2023-03-20T14:36:18.148Z,56.77
2023-03-20T14:37:38.677Z,56.19
2023-03-20T14:38:39.445Z,56.54
2023-03-20T14:40:08.853Z,56.24
2023-03-20T14:41:11.000Z,57.28
2023-03-20T14:42:24.414Z,57.60
2023-03-20T14:43:30.483Z,57.53
2023-03-20T14:44:46.427Z,57.77
2023-03-20T14:45:57.247Z,57.63
2023-03-20T14:47:20.545Z,56.30
2023-03-20T14:48:31.973Z,56.88
2023-03-20T14:49:27.567Z,56.43
2023-03-20T14:50:34.054Z,56.22
2023-03-20T14:51:41.967Z,56.07
2023-03-20T14:52:50.345Z,58.27
2023-03-20T14:53:42.111Z,57.17
2023-03-20T14:54:33.841Z,57.28
2023-03-20T14:55:26.972Z,57.49
2023-03-20T14:56:28.649Z,57.59
2023-03-20T14:57:56.135Z,58.01
2023-03-20T14:58:55.709Z,57.74
2023-03-20T14:59:50.523Z,57.47
2023-03-20T15:00:47.195Z,56.36
2023-03-20T15:01:38.742Z,57.46
2023-03-20T15:02:36.259Z,59.19
2023-03-20T15:03:27.784Z,57.30
2023-03-20T15:04:28.381Z,57.29
2023-03-20T15:05:32.739Z,57.44
2023-03-20T15:06:27.529Z,57.14
2023-03-20T15:07:38.791Z,57.98
2023-03-20T15:08:36.077Z,57.78
2023-03-20T15:09:32.910Z,57.95
2023-03-20T15:10:26.190Z,59.48
2023-03-20T15:11:20.342Z,59.42
2023-03-20T15:12:19.110Z,59.29
2023-03-20T15:13:13.900Z,58.62
2023-03-20T15:14:09.947Z,58.92
2023-03-20T15:15:05.677Z,59.09
2023-03-20T15:16:05.313Z,59.28
2023-03-20T15:17:00.220Z,59.62
2023-03-20T15:17:51.750Z,59.90
2023-03-20T15:18:50.921Z,59.50
2023-03-20T15:19:42.358Z,59.06
2023-03-20T15:20:36.756Z,59.64
2023-03-20T15:21:41.142Z,59.42
2023-03-20T15:22:32.727Z,59.28
2023-03-20T15:23:26.269Z,59.39
2023-03-20T15:24:25.935Z,57.99
2023-03-20T15:25:20.558Z,59.11
2023-03-20T15:26:16.245Z,58.71
2023-03-20T15:27:13.431Z,59.53
2023-03-20T15:28:13.709Z,58.12
2023-03-20T15:29:11.019Z,58.19
2023-03-20T15:30:03.517Z,58.03
2023-03-20T15:30:59.567Z,56.97
2023-03-20T15:32:12.364Z,56.96
2023-03-20T15:33:06.449Z,58.49
2023-03-20T15:34:00.301Z,58.32
2023-03-20T15:34:52.216Z,59.17
2023-03-20T15:35:43.738Z,58.90
2023-03-20T15:36:39.528Z,58.77
2023-03-20T15:37:31.259Z,57.98
2023-03-20T15:38:32.994Z,59.86
2023-03-20T15:39:27.907Z,57.48
2023-03-20T15:40:43.748Z,57.91
2023-03-20T15:41:46.269Z,57.52
2023-03-20T15:42:37.693Z,58.59
2023-03-20T15:43:29.246Z,58.06
2023-03-20T15:44:34.691Z,58.31
2023-03-20T15:45:36.729Z,58.84
2023-03-20T15:46:29.634Z,58.97
2023-03-20T15:47:26.065Z,59.40
2023-03-20T15:48:20.874Z,59.16
2023-03-20T15:49:17.811Z,58.60
2023-03-20T15:50:12.904Z,58.20
2023-03-20T15:51:05.565Z,57.51
2023-03-20T15:52:03.198Z,59.05
2023-03-20T15:52:54.734Z,58.15
2023-03-20T15:53:48.495Z,57.61
2023-03-20T15:54:43.115Z,57.37
2023-03-20T15:55:35.036Z,57.42
2023-03-20T15:56:28.110Z,59.37
2023-03-20T15:57:26.059Z,59.33
2023-03-20T15:58:18.553Z,61.17
2023-03-20T15:59:14.980Z,59.07
2023-03-20T16:00:14.552Z,58.11
2023-03-20T16:01:08.687Z,57.10
2023-03-20T16:02:01.928Z,58.62